Time;durP1;ratioP1;P1;durP2;ratioP2;P2;SDS_P1;SDS_P2;PMS_P1;PMS_P2;Temp;Humidity;BMP_temperature;BMP_pressure;BME280_temperature;BME280_humidity;BME280_pressure;Samples;Min_cycle;Max_cycle;Signal;HPM_P1;HPM_P2
2021/07/01 04:40:47;;;;;;;;;14.75;13.25;;;;;25.15;49.08;98147.03;7288156;23;99212;-65
2021/07/01 04:44:04;;;;;;;;;15.40;15.00;;;;;25.26;49.50;98155.72;6256008;27;96430;-63
2021/07/01 04:47:20;;;;;;;;;14.00;14.00;;;;;25.24;49.53;98156.03;6258646;27;96302;-63
2021/07/01 04:50:46;;;;;;;;;12.80;12.80;;;;;25.22;49.94;98152.81;6285505;27;96333;-64
2021/07/01 04:54:36;;;;;;;;;16.00;15.00;;;;;25.21;50.05;98147.63;6254904;27;96790;-64
2021/07/01 04:58:10;;;;;;;;;13.80;13.00;;;;;25.23;50.14;98150.84;6280930;27;96393;-65
2021/07/01 05:01:30;;;;;;;;;17.00;16.00;;;;;25.25;50.10;98143.88;6260597;27;96798;-62
2021/07/01 05:05:20;;;;;;;;;14.00;13.00;;;;;25.23;50.14;98159.13;6247895;27;96430;-64
2021/07/01 05:08:40;;;;;;;;;12.40;12.00;;;;;25.19;50.21;98155.44;6253887;27;96607;-63
2021/07/01 05:11:55;;;;;;;;;17.40;16.00;;;;;25.19;49.99;98152.66;6254767;27;96191;-63
2021/07/01 05:15:11;;;;;;;;;16.00;13.00;;;;;25.26;49.93;98161.25;6260633;27;96418;-64
2021/07/01 05:18:26;;;;;;;;;15.40;15.00;;;;;25.19;50.08;98160.94;6337176;27;97030;-64
2021/07/01 05:22:08;;;;;;;;;14.40;14.00;;;;;25.26;49.95;98170.31;6241639;27;96680;-63
2021/07/01 05:25:41;;;;;;;;;15.00;15.00;;;;;25.33;49.92;98173.34;6260400;27;96158;-64
2021/07/01 05:29:15;;;;;;;;;13.80;12.20;;;;;25.33;49.43;98176.09;6260597;27;96091;-64
2021/07/01 05:33:09;;;;;;;;;12.00;10.75;;;;;25.36;49.53;98188.44;6260429;27;96626;-63
2021/07/01 05:36:30;;;;;;;;;12.40;11.60;;;;;25.35;50.01;98195.09;6246316;27;97361;-64
2021/07/01 05:39:51;;;;;;;;;11.20;11.00;;;;;25.28;50.15;98195.63;6260621;27;96693;-64
2021/07/01 05:43:07;;;;;;;;;13.00;13.00;;;;;25.33;50.21;98198.19;6340193;27;1352018;-64
2021/07/01 05:46:21;;;;;;;;;11.75;11.00;;;;;25.29;50.06;98196.44;6260154;27;96382;-63
2021/07/01 05:49:38;;;;;;;;;12.00;12.00;;;;;25.30;50.02;98196.09;6260114;27;96228;-65
2021/07/01 05:52:57;;;;;;;;;11.40;11.00;;;;;25.24;50.11;98196.63;6336864;27;96288;-63
2021/07/01 05:56:11;;;;;;;;;13.00;13.00;;;;;25.30;50.17;98196.09;6336901;27;96694;-64
2021/07/01 05:59:26;;;;;;;;;14.00;14.00;;;;;25.35;49.97;98198.66;6260425;27;96540;-63
2021/07/01 06:02:41;;;;;;;;;12.75;12.00;;;;;25.42;49.92;98209.97;6328109;27;96556;-64
2021/07/01 06:06:02;;;;;;;;;12.00;10.60;;;;;25.44;49.65;98206.88;6246246;27;97017;-62
2021/07/01 06:09:38;;;;;;;;;12.00;11.00;;;;;25.44;49.95;98201.34;6258956;27;96497;-64
2021/07/01 06:12:54;;;;;;;;;10.75;10.75;;;;;25.37;49.85;98203.81;6260189;27;96872;-63
2021/07/01 06:16:13;;;;;;;;;13.40;13.00;;;;;25.40;49.79;98204.00;6243419;27;96214;-63
2021/07/01 06:19:31;;;;;;;;;12.00;11.00;;;;;25.36;49.92;98196.72;6240387;27;97163;-63
2021/07/01 06:22:47;;;;;;;;;11.00;10.40;;;;;25.42;50.01;98203.63;6234275;27;96551;-62
2021/07/01 06:26:02;;;;;;;;;12.60;11.00;;;;;25.43;50.22;98216.28;6331305;27;96820;-64
2021/07/01 06:29:18;;;;;;;;;14.00;13.00;;;;;25.42;50.19;98212.72;6255678;27;96231;-64
2021/07/01 06:32:40;;;;;;;;;11.00;10.75;;;;;25.46;50.12;98215.63;6256802;27;96228;-63
2021/07/01 06:35:55;;;;;;;;;14.00;13.00;;;;;25.44;50.10;98209.63;6333290;27;96552;-63
2021/07/01 06:39:28;;;;;;;;;12.00;11.50;;;;;25.53;50.16;98213.13;6327291;27;1350005;-63
2021/07/01 06:43:02;;;;;;;;;13.33;13.00;;;;;25.66;49.94;98214.84;6324143;27;1364896;-64
2021/07/01 06:46:55;;;;;;;;;14.80;13.80;;;;;25.78;49.40;98212.16;6254273;27;96159;-64
2021/07/01 06:50:30;;;;;;;;;15.40;13.40;;;;;25.88;49.24;98222.00;6279910;27;96200;-63
2021/07/01 06:54:03;;;;;;;;;13.80;12.00;;;;;25.99;48.73;98227.91;6254435;27;96784;-64
2021/07/01 06:57:41;;;;;;;;;16.80;13.80;;;;;26.10;48.74;98229.09;6257394;27;96104;-63
2021/07/01 07:00:56;;;;;;;;;14.00;13.00;;;;;26.11;48.36;98228.78;6209729;28;96251;-63
2021/07/01 07:04:11;;;;;;;;;14.00;13.00;;;;;26.18;47.97;98226.28;6255012;27;96678;-63
2021/07/01 07:07:26;;;;;;;;;16.40;13.00;;;;;26.21;48.30;98241.34;6254533;27;96699;-65
2021/07/01 07:21:11;;;;;;;;;12.00;11.60;;;;;26.45;47.62;98235.13;6271042;27;96840;-64
2021/07/01 07:24:29;;;;;;;;;15.00;14.00;;;;;26.45;47.50;98227.66;6335813;27;96508;-63
2021/07/01 07:27:53;;;;;;;;;16.00;15.00;;;;;26.40;47.50;98232.56;6323105;27;96396;-63
2021/07/01 07:31:12;;;;;;;;;14.00;13.00;;;;;26.45;47.39;98238.69;6246782;27;96095;-63
2021/07/01 07:34:27;;;;;;;;;13.75;12.00;;;;;26.49;47.02;98239.63;6246969;27;96667;-63
2021/07/01 07:37:41;;;;;;;;;15.20;13.60;;;;;26.59;46.97;98241.97;6248854;27;96759;-63
2021/07/01 07:40:57;;;;;;;;;14.00;13.75;;;;;26.52;46.81;98233.44;6311390;27;96407;-63
2021/07/01 07:44:16;;;;;;;;;16.00;14.00;;;;;26.63;47.07;98233.81;6313019;27;97059;-63
2021/07/01 07:47:31;;;;;;;;;16.40;14.00;;;;;26.74;46.60;98227.47;6237765;27;96549;-63
2021/07/01 07:50:52;;;;;;;;;13.40;13.00;;;;;26.65;46.03;98232.31;6238206;27;96776;-63
2021/07/01 07:54:08;;;;;;;;;12.00;11.00;;;;;26.65;45.87;98235.06;6238676;27;96532;-65
2021/07/01 07:57:27;;;;;;;;;14.60;13.00;;;;;26.60;46.06;98237.25;6241050;27;97248;-63
2021/07/01 08:00:44;;;;;;;;;10.60;10.60;;;;;26.60;45.96;98235.28;6246624;27;96704;-63
2021/07/01 08:04:04;;;;;;;;;12.25;11.00;;;;;26.48;45.83;98242.75;6322288;27;96472;-63
2021/07/01 08:07:21;;;;;;;;;16.40;14.40;;;;;26.41;46.15;98239.72;6319124;27;96540;-62
2021/07/01 08:10:36;;;;;;;;;12.50;12.50;;;;;26.46;45.97;98236.75;6281878;27;96205;-63
2021/07/01 08:13:54;;;;;;;;;14.60;14.00;;;;;26.42;45.93;98233.88;6259867;27;96966;-63
2021/07/01 08:17:10;;;;;;;;;15.00;14.00;;;;;26.44;46.14;98237.06;6285628;27;96119;-62
2021/07/01 08:20:25;;;;;;;;;16.80;14.00;;;;;26.34;46.52;98240.28;6259454;27;96885;-63
2021/07/01 08:23:41;;;;;;;;;14.60;13.80;;;;;26.32;46.65;98233.47;6259562;27;96160;-64
2021/07/01 08:26:58;;;;;;;;;15.50;15.00;;;;;26.32;46.75;98230.72;6259462;27;96525;-63
2021/07/01 08:30:14;;;;;;;;;16.00;14.60;;;;;26.35;46.56;98233.59;6321666;27;96752;-63
2021/07/01 08:33:37;;;;;;;;;19.40;16.80;;;;;26.35;46.61;98230.03;6270405;27;96140;-64
2021/07/01 08:36:51;;;;;;;;;15.75;14.75;;;;;26.45;46.77;98226.84;6259646;27;96429;-63
2021/07/01 08:40:08;;;;;;;;;17.00;15.25;;;;;26.49;46.51;98231.34;6284214;27;96434;-64
2021/07/01 08:43:25;;;;;;;;;15.25;14.00;;;;;26.49;46.31;98225.81;6259384;27;96383;-64
2021/07/01 08:46:47;;;;;;;;;15.50;15.00;;;;;26.50;46.46;98240.44;6259695;27;96389;-63
2021/07/01 08:50:06;;;;;;;;;17.00;16.00;;;;;26.45;46.50;98238.69;6259587;27;96250;-62
2021/07/01 08:53:33;;;;;;;;;16.00;15.20;;;;;26.44;45.94;98242.59;6284273;27;97011;-63
2021/07/01 08:56:50;;;;;;;;;14.00;12.20;;;;;26.49;45.24;98231.34;6245387;27;96742;-63
2021/07/01 09:00:12;;;;;;;;;13.00;12.40;;;;;26.69;44.66;98232.41;6225901;27;96583;-63
2021/07/01 09:03:29;;;;;;;;;11.00;10.00;;;;;26.83;44.47;98230.13;6240953;27;96889;-64
2021/07/01 09:06:46;;;;;;;;;10.00;10.00;;;;;26.88;44.38;98246.53;6241949;27;96220;-64
2021/07/01 09:10:04;;;;;;;;;10.00;10.00;;;;;26.88;43.89;98248.50;6250117;27;96899;-64
2021/07/01 09:13:21;;;;;;;;;11.40;10.60;;;;;26.86;44.36;98245.25;6252310;27;96305;-63
2021/07/01 09:16:39;;;;;;;;;9.00;9.00;;;;;26.90;44.13;98243.44;6256445;27;96798;-62
2021/07/01 09:19:56;;;;;;;;;9.00;9.00;;;;;26.95;44.06;98254.28;6326566;27;96335;-63
2021/07/01 09:23:13;;;;;;;;;9.80;9.00;;;;;27.03;43.69;98261.66;6257302;27;96926;-62
2021/07/01 09:26:28;;;;;;;;;8.00;8.00;;;;;27.07;43.45;98271.69;6256272;27;96310;-62
2021/07/01 09:29:45;;;;;;;;;8.60;8.00;;;;;27.14;43.47;98274.69;6252513;27;96697;-64
2021/07/01 09:33:01;;;;;;;;;7.20;7.00;;;;;27.26;43.43;98267.56;6333547;27;96613;-65
2021/07/01 09:36:17;;;;;;;;;8.60;8.00;;;;;27.33;43.06;98271.34;6254026;27;96816;-63
2021/07/01 09:39:33;;;;;;;;;7.20;7.00;;;;;27.41;42.90;98261.31;6254903;27;96391;-64
2021/07/01 09:42:51;;;;;;;;;8.50;8.00;;;;;27.55;43.07;98257.06;6327618;27;1354466;-63
2021/07/01 09:46:11;;;;;;;;;7.80;7.80;;;;;27.59;43.11;98268.25;6256487;27;96362;-63
2021/07/01 09:49:32;;;;;;;;;8.00;8.00;;;;;27.49;43.16;98264.00;6257064;27;96746;-63
2021/07/01 09:52:52;;;;;;;;;8.80;8.80;;;;;27.57;43.20;98259.47;6322377;27;96417;-63
2021/07/01 09:56:08;;;;;;;;;10.00;8.40;;;;;27.68;42.30;98254.28;6256970;27;96478;-65
2021/07/01 09:59:25;;;;;;;;;9.00;8.00;;;;;27.63;42.77;98269.16;6257875;27;96392;-65
2021/07/01 10:02:29;;;;;;;;;9.00;8.25;;;;;27.62;43.17;98255.66;6230269;27;97485;-62
2021/07/01 10:05:44;;;;;;;;;8.00;8.00;;;;;27.53;43.19;98258.56;6331006;27;96398;-63
2021/07/01 10:08:59;;;;;;;;;9.00;8.00;;;;;27.35;43.35;98268.25;6251344;27;97013;-62
2021/07/01 10:12:19;;;;;;;;;10.00;10.00;;;;;27.30;43.33;98274.00;6259485;27;96437;-63
2021/07/01 10:15:36;;;;;;;;;8.00;7.00;;;;;27.24;43.06;98278.97;6336309;27;96794;-63
2021/07/01 10:18:50;;;;;;;;;8.00;7.00;;;;;27.30;43.35;98287.84;6324325;27;96629;-62
2021/07/01 10:22:08;;;;;;;;;7.00;7.00;;;;;27.23;41.95;98293.13;6249341;27;96766;-62
2021/07/01 10:25:30;;;;;;;;;6.00;6.00;;;;;27.24;42.00;98305.81;6259461;27;96156;-63
2021/07/01 10:28:57;;;;;;;;;6.20;6.00;;;;;27.25;42.77;98299.16;6259861;27;96750;-62
2021/07/01 10:32:12;;;;;;;;;6.20;6.20;;;;;27.19;42.51;98303.28;6259436;27;97147;-63
2021/07/01 10:35:30;;;;;;;;;7.20;7.00;;;;;27.21;42.86;98301.81;6328087;27;96243;-62
2021/07/01 10:38:47;;;;;;;;;6.00;6.00;;;;;27.27;43.02;98291.31;6284618;27;96777;-63
2021/07/01 10:42:03;;;;;;;;;6.50;6.00;;;;;27.39;43.01;98299.59;6259570;27;96260;-63
2021/07/01 10:45:19;;;;;;;;;8.50;8.50;;;;;27.51;43.14;98305.19;6259395;27;96471;-63
2021/07/01 10:48:34;;;;;;;;;7.00;7.00;;;;;27.61;42.64;98299.19;6244933;27;96651;-64
2021/07/01 10:51:56;;;;;;;;;7.80;7.80;;;;;27.90;42.72;98289.78;6335585;27;96484;-63
2021/07/01 10:55:12;;;;;;;;;8.00;8.00;;;;;27.98;42.67;98283.28;6259371;27;96559;-63
2021/07/01 10:58:56;;;;;;;;;11.00;11.00;;;;;28.20;42.17;98291.09;6336049;27;96776;-63
2021/07/01 11:02:21;;;;;;;;;12.00;11.00;;;;;28.27;42.20;98276.63;6259397;27;96247;-63
2021/07/01 11:05:37;;;;;;;;;11.00;10.40;;;;;28.32;41.88;98274.44;6259832;27;96524;-64
2021/07/01 11:08:56;;;;;;;;;10.60;10.60;;;;;28.41;43.03;98265.94;6259952;27;96733;-63
2021/07/01 11:12:20;;;;;;;;;9.75;9.75;;;;;28.65;43.32;98267.78;6260158;27;96741;-63
2021/07/01 11:15:35;;;;;;;;;12.00;12.00;;;;;28.66;42.49;98278.53;6260003;27;96139;-63
2021/07/01 11:18:51;;;;;;;;;11.00;11.00;;;;;28.74;43.69;98268.44;6335840;27;96189;-63
2021/07/01 11:22:07;;;;;;;;;11.00;9.00;;;;;28.67;42.75;98266.28;6259037;27;96129;-64
2021/07/01 11:25:27;;;;;;;;;10.00;8.00;;;;;28.87;42.11;98267.22;6259512;27;96454;-63
2021/07/01 11:28:41;;;;;;;;;10.75;8.75;;;;;29.11;42.35;98267.06;6259518;27;96739;-63
2021/07/01 11:31:56;;;;;;;;;9.40;9.00;;;;;29.28;41.17;98269.44;6259721;27;96117;-63
2021/07/01 11:35:23;;;;;;;;;8.25;8.25;;;;;29.76;41.19;98269.41;6284682;27;96169;-62
2021/07/01 11:38:40;;;;;;;;;10.00;9.00;;;;;29.86;40.20;98282.75;6336394;27;96815;-64
2021/07/01 11:41:57;;;;;;;;;9.00;9.00;;;;;30.27;39.22;98282.06;6260016;27;96504;-63
2021/07/01 11:45:13;;;;;;;;;10.00;9.00;;;;;30.38;38.37;98285.88;6285421;27;96408;-63
2021/07/01 11:48:30;;;;;;;;;8.00;8.00;;;;;30.63;38.60;98275.28;6259683;27;96819;-64
2021/07/01 11:51:44;;;;;;;;;7.50;7.00;;;;;31.04;38.91;98282.00;6252501;27;97352;-63
2021/07/01 11:55:00;;;;;;;;;7.80;7.40;;;;;30.89;37.91;98277.31;6320836;27;96672;-62
2021/07/01 11:58:16;;;;;;;;;9.00;9.00;;;;;31.02;37.43;98272.41;6244571;27;96517;-63
2021/07/01 12:01:31;;;;;;;;;9.00;8.00;;;;;31.28;37.92;98272.44;6247435;27;96198;-64
2021/07/01 12:04:46;;;;;;;;;7.00;7.00;;;;;31.56;37.15;98270.16;6283336;27;96858;-62
2021/07/01 12:08:03;;;;;;;;;10.00;10.00;;;;;31.35;36.13;98265.03;6255949;27;96301;-64
2021/07/01 12:11:18;;;;;;;;;9.00;8.00;;;;;31.37;36.55;98279.38;6259253;27;97164;-64
2021/07/01 12:14:35;;;;;;;;;9.00;8.00;;;;;31.15;36.40;98271.84;6252988;27;96387;-63
2021/07/01 12:18:02;;;;;;;;;8.00;8.00;;;;;31.17;36.96;98275.06;6235689;27;96914;-64
2021/07/01 12:21:20;;;;;;;;;8.00;8.00;;;;;31.13;36.92;98276.97;6234982;27;96644;-64
2021/07/01 12:24:35;;;;;;;;;9.00;9.00;;;;;30.96;35.84;98283.03;6322879;27;96149;-65
2021/07/01 12:28:08;;;;;;;;;9.00;9.00;;;;;30.76;36.51;98279.47;6254395;27;96328;-64
2021/07/01 12:31:25;;;;;;;;;9.60;9.00;;;;;30.77;36.81;98285.84;6322414;27;96756;-64
2021/07/01 12:34:42;;;;;;;;;9.00;9.00;;;;;30.82;36.76;98275.22;6253439;27;96451;-64
2021/07/01 12:38:11;;;;;;;;;10.00;9.00;;;;;31.04;36.99;98279.22;6304270;27;1362982;-63
2021/07/01 12:41:26;;;;;;;;;10.00;9.40;;;;;31.06;36.75;98281.63;6255396;27;96860;-65
2021/07/01 12:44:44;;;;;;;;;9.00;9.00;;;;;31.13;36.46;98281.75;6254599;27;96486;-66
2021/07/01 12:47:58;;;;;;;;;8.80;8.80;;;;;31.28;36.79;98278.81;6251503;27;96728;-65
2021/07/01 12:54:59;;;;;;;;;9.00;9.00;;;;;31.33;35.87;98277.69;6249330;27;96220;-65
2021/07/01 12:58:15;;;;;;;;;8.00;8.00;;;;;31.44;34.21;98284.25;6251251;27;96483;-66
2021/07/01 13:01:30;;;;;;;;;8.00;8.00;;;;;31.77;35.45;98281.59;6333850;27;96268;-66
2021/07/01 13:04:51;;;;;;;;;9.00;9.00;;;;;31.97;34.75;98275.91;6283949;27;96688;-67
2021/07/01 13:07:54;;;;;;;;;8.00;7.00;;;;;32.10;34.51;98283.72;6255476;27;97490;-65
2021/07/01 13:11:09;;;;;;;;;7.00;6.40;;;;;32.13;33.09;98277.34;6261167;27;97028;-66
2021/07/01 13:14:25;;;;;;;;;7.00;7.00;;;;;32.47;33.80;98277.38;6336990;27;96516;-66
2021/07/01 13:17:40;;;;;;;;;7.00;7.00;;;;;32.52;32.94;98277.84;6244982;27;96757;-65
2021/07/01 13:21:08;;;;;;;;;7.00;6.80;;;;;32.32;32.63;98273.59;6260077;27;96815;-66
2021/07/01 13:24:22;;;;;;;;;5.00;5.00;;;;;32.30;31.85;98276.00;6337366;27;96956;-65
2021/07/01 13:27:43;;;;;;;;;5.50;5.50;;;;;32.25;31.84;98271.53;6336306;27;96444;-66
2021/07/01 13:30:58;;;;;;;;;5.00;5.00;;;;;32.53;32.17;98262.69;6337223;27;97139;-65
2021/07/01 13:34:13;;;;;;;;;6.00;5.00;;;;;32.74;31.51;98280.91;6260028;27;96447;-65
2021/07/01 13:37:30;;;;;;;;;6.00;5.00;;;;;32.10;31.67;98194.47;6259904;27;96803;-65
2021/07/01 13:40:46;;;;;;;;;7.00;6.00;;;;;32.59;30.98;98263.97;6335863;27;96279;-66
2021/07/01 13:44:12;;;;;;;;;5.00;5.00;;;;;32.56;31.73;98269.50;6336304;27;96895;-64
2021/07/01 13:47:26;;;;;;;;;5.00;5.00;;;;;32.45;31.67;98254.66;6260264;27;96337;-66
2021/07/01 13:50:44;;;;;;;;;5.00;5.00;;;;;32.40;31.45;98263.34;6260669;27;96968;-64
2021/07/01 13:54:11;;;;;;;;;7.00;6.00;;;;;32.26;31.89;98263.97;6336551;27;96276;-66
2021/07/01 13:57:29;;;;;;;;;6.00;6.00;;;;;32.07;31.87;98276.03;6260219;27;96370;-66
2021/07/01 14:00:45;;;;;;;;;6.00;6.00;;;;;32.00;31.45;98269.59;6285937;27;96117;-65
2021/07/01 14:04:00;;;;;;;;;7.00;7.00;;;;;31.92;32.63;98270.66;6260612;27;97841;-66
2021/07/01 14:07:27;;;;;;;;;6.00;5.00;;;;;32.08;32.83;98268.50;6285969;27;96698;-64
2021/07/01 14:10:41;;;;;;;;;6.00;6.00;;;;;31.94;32.10;98266.31;6235284;28;96449;-66
2021/07/01 14:13:59;;;;;;;;;6.00;6.00;;;;;31.71;31.67;98268.38;6261719;27;96459;-64
2021/07/01 14:17:14;;;;;;;;;3.80;3.80;;;;;31.75;31.58;98277.59;6236270;28;96219;-67
2021/07/01 14:20:29;;;;;;;;;4.00;4.00;;;;;31.97;31.81;98265.56;6247425;27;96194;-64
2021/07/01 14:23:43;;;;;;;;;5.00;5.00;;;;;32.03;31.15;98271.59;6235088;27;96178;-64
2021/07/01 14:27:01;;;;;;;;;6.00;5.00;;;;;31.87;31.55;98271.78;6334965;27;1361905;-65
2021/07/01 14:30:34;;;;;;;;;6.00;6.00;;;;;31.97;31.38;98276.72;6258829;27;96356;-66
2021/07/01 14:33:58;;;;;;;;;5.00;5.00;;;;;32.06;31.33;98280.00;6258510;27;96282;-66
2021/07/01 14:37:20;;;;;;;;;5.00;5.00;;;;;32.00;31.37;98273.19;6258772;27;96290;-65
2021/07/01 14:40:35;;;;;;;;;6.00;5.25;;;;;31.82;31.37;98275.72;6283352;27;96786;-66
2021/07/01 14:43:55;;;;;;;;;6.00;6.00;;;;;31.74;32.25;98274.00;6280415;27;96110;-66
2021/07/01 14:47:15;;;;;;;;;5.00;5.00;;;;;31.72;31.92;98268.00;6258538;27;96622;-65
2021/07/01 14:50:31;;;;;;;;;5.40;5.00;;;;;31.68;31.68;98260.75;6255868;27;96268;-64
2021/07/01 14:53:47;;;;;;;;;6.00;6.00;;;;;31.66;32.07;98260.34;6334620;27;96809;-65
2021/07/01 14:57:12;;;;;;;;;5.60;5.60;;;;;31.78;32.74;98263.72;6335241;27;96309;-64
2021/07/01 15:00:27;;;;;;;;;6.00;5.00;;;;;31.88;32.46;98255.88;6282601;27;96764;-64
2021/07/01 15:03:43;;;;;;;;;7.00;6.50;;;;;31.77;32.54;98242.59;6282581;27;96735;-64
2021/07/01 15:07:00;;;;;;;;;5.40;5.00;;;;;31.77;32.29;98262.09;6255714;27;96433;-64
2021/07/01 15:10:17;;;;;;;;;5.00;5.00;;;;;31.73;32.26;98254.88;6337775;27;97508;-64
2021/07/01 15:13:32;;;;;;;;;6.00;5.00;;;;;31.69;32.84;98260.41;6260812;27;97020;-66
2021/07/01 15:17:05;;;;;;;;;6.00;6.00;;;;;31.73;32.87;98255.66;6285982;27;96177;-64
2021/07/01 15:20:20;;;;;;;;;5.00;4.00;;;;;31.77;32.47;98248.16;6261208;27;96643;-66
2021/07/01 15:23:35;;;;;;;;;4.00;4.00;;;;;31.73;31.89;98252.06;6261559;27;96254;-65
2021/07/01 15:26:50;;;;;;;;;3.60;3.00;;;;;31.65;31.53;98253.16;6261475;27;96198;-64
2021/07/01 15:30:06;;;;;;;;;5.00;5.00;;;;;31.49;32.19;98246.91;6250507;27;96752;-65
2021/07/01 15:33:21;;;;;;;;;5.00;5.00;;;;;31.38;32.49;98244.78;6256086;27;96554;-65
2021/07/01 15:36:36;;;;;;;;;5.00;4.60;;;;;31.29;32.54;98246.22;6257518;27;96205;-64
2021/07/01 15:39:52;;;;;;;;;5.00;4.00;;;;;31.21;32.26;98250.88;6248271;27;96282;-67
2021/07/01 15:43:12;;;;;;;;;7.00;6.00;;;;;31.06;33.36;98245.44;6272058;27;96523;-66
2021/07/01 15:46:26;;;;;;;;;5.00;5.00;;;;;31.01;33.27;98246.53;6272833;27;96421;-66
2021/07/01 15:49:56;;;;;;;;;3.60;3.00;;;;;30.86;33.80;98253.03;6256237;27;96255;-64
2021/07/01 15:53:14;;;;;;;;;6.00;6.00;;;;;30.70;34.04;98244.78;6255882;27;96520;-65
2021/07/01 15:56:46;;;;;;;;;6.00;4.00;;;;;30.60;33.50;98242.59;6334049;27;96184;-66
2021/07/01 16:00:02;;;;;;;;;4.00;4.00;;;;;30.46;34.02;98245.13;6256556;27;96434;-67
2021/07/01 16:03:21;;;;;;;;;5.00;5.00;;;;;30.33;33.75;98246.44;6258169;27;96193;-64
2021/07/01 16:06:37;;;;;;;;;5.20;4.00;;;;;30.22;33.72;98250.97;6254995;27;96517;-64
2021/07/01 16:09:51;;;;;;;;;4.00;4.00;;;;;30.14;34.52;98250.03;6337792;27;96731;-66
2021/07/01 16:13:07;;;;;;;;;4.40;4.40;;;;;30.08;34.24;98257.84;6337582;27;96363;-65
2021/07/01 16:16:23;;;;;;;;;4.40;4.40;;;;;30.03;34.12;98257.31;6262346;27;96420;-67
2021/07/01 16:19:38;;;;;;;;;5.00;5.00;;;;;29.95;34.76;98263.91;6261392;27;96791;-65
2021/07/01 16:22:54;;;;;;;;;3.20;3.20;;;;;29.79;35.38;98268.69;6250877;27;96482;-65
2021/07/01 16:26:10;;;;;;;;;6.00;5.00;;;;;29.68;36.05;98277.56;6250620;27;96830;-64
2021/07/01 16:29:29;;;;;;;;;6.00;5.00;;;;;29.57;36.10;98278.47;6250839;27;96468;-67
2021/07/01 16:32:43;;;;;;;;;5.00;5.00;;;;;29.47;35.80;98282.63;6326804;27;1354010;-66
2021/07/01 16:35:58;;;;;;;;;6.60;6.00;;;;;29.41;35.71;98280.50;6334601;27;96589;-65
2021/07/01 16:39:22;;;;;;;;;3.00;3.00;;;;;29.40;36.23;98284.44;6235509;28;96424;-65
2021/07/01 16:42:37;;;;;;;;;4.00;3.00;;;;;29.53;36.78;98272.84;6257551;27;96418;-66
2021/07/01 16:46:08;;;;;;;;;3.00;3.00;;;;;29.62;36.62;98275.44;6257168;27;96314;-66
2021/07/01 16:49:26;;;;;;;;;3.40;3.40;;;;;29.68;36.24;98274.81;6282884;27;96296;-64
2021/07/01 16:52:43;;;;;;;;;4.40;4.40;;;;;29.77;35.94;98276.56;6257962;27;96808;-66
2021/07/01 16:55:59;;;;;;;;;4.00;4.00;;;;;29.74;36.09;98278.09;6335628;27;96225;-66
2021/07/01 16:59:13;;;;;;;;;3.75;3.75;;;;;29.74;35.13;98288.41;6279537;27;96357;-64
2021/07/01 17:02:28;;;;;;;;;4.00;4.00;;;;;29.57;35.66;98286.81;6330980;27;96790;-65
2021/07/01 17:05:44;;;;;;;;;3.00;3.00;;;;;29.59;35.86;98284.50;6253987;27;96129;-65
2021/07/01 17:09:01;;;;;;;;;4.00;4.00;;;;;29.48;36.18;98287.03;6325429;27;96230;-66
2021/07/01 17:12:16;;;;;;;;;4.00;4.00;;;;;29.31;36.05;98289.38;6261625;27;96759;-65
2021/07/01 17:15:31;;;;;;;;;4.00;4.00;;;;;29.29;36.53;98281.38;6286393;27;96381;-64
2021/07/01 17:18:49;;;;;;;;;4.00;4.00;;;;;28.93;36.99;98278.88;6337435;27;96201;-65
2021/07/01 17:22:12;;;;;;;;;4.60;4.60;;;;;28.97;37.71;98296.41;6260496;27;96486;-64
2021/07/01 17:25:29;;;;;;;;;6.60;6.00;;;;;28.76;37.89;98300.25;6246324;27;96940;-66
2021/07/01 17:28:47;;;;;;;;;6.00;6.00;;;;;28.63;37.99;98295.91;6251359;27;96513;-65
2021/07/01 17:32:03;;;;;;;;;5.00;4.00;;;;;28.51;37.77;98297.91;6348674;27;96477;-65
2021/07/01 17:35:18;;;;;;;;;6.00;6.00;;;;;28.42;37.86;98296.09;6247344;27;96743;-66
2021/07/01 17:38:32;;;;;;;;;6.00;6.00;;;;;28.25;37.84;98295.56;6249576;27;96418;-65
2021/07/01 17:42:06;;;;;;;;;6.00;5.00;;;;;28.19;37.94;98297.00;6259458;27;96101;-66
2021/07/01 17:45:21;;;;;;;;;4.40;4.40;;;;;28.05;38.06;98291.81;6248460;27;96319;-64
2021/07/01 17:48:38;;;;;;;;;5.00;4.40;;;;;27.91;37.73;98291.38;6274609;27;96866;-65
2021/07/01 17:51:54;;;;;;;;;6.20;6.20;;;;;27.83;37.76;98293.13;6336758;27;96780;-65
2021/07/01 17:55:12;;;;;;;;;4.00;4.00;;;;;27.77;37.78;98297.28;6249472;27;96253;-66
2021/07/01 17:58:26;;;;;;;;;4.00;4.00;;;;;27.78;37.87;98298.91;6256052;27;96831;-65
2021/07/01 18:01:42;;;;;;;;;5.25;4.25;;;;;27.74;37.79;98300.78;6256837;27;96484;-64
2021/07/01 18:04:58;;;;;;;;;5.00;5.00;;;;;27.73;37.89;98301.09;6232571;27;96586;-64
2021/07/01 18:08:13;;;;;;;;;4.00;4.00;;;;;27.75;37.46;98304.34;6326143;27;96974;-64
2021/07/01 18:11:28;;;;;;;;;6.00;6.00;;;;;27.72;37.35;98302.25;6248806;27;96650;-65
2021/07/01 19:22:34;;;;;;;;;8.00;7.25;;;;;26.65;41.61;98378.03;6438296;22;97415;-63
2021/07/01 19:25:50;;;;;;;;;7.00;6.00;;;;;26.64;41.82;98373.66;6250389;27;96793;-66
2021/07/01 19:29:05;;;;;;;;;6.00;6.00;;;;;26.60;42.04;98379.06;6280199;27;96192;-65
2021/07/01 19:32:20;;;;;;;;;6.00;6.00;;;;;26.50;42.83;98379.47;6236504;27;96185;-64
2021/07/01 19:35:35;;;;;;;;;7.00;6.60;;;;;26.45;42.72;98384.38;6246494;27;96586;-66
2021/07/01 19:38:54;;;;;;;;;8.00;7.00;;;;;26.37;42.92;98391.63;6328369;27;96261;-65
2021/07/01 19:42:19;;;;;;;;;8.60;8.00;;;;;26.39;42.85;98392.06;6277025;27;96423;-66
2021/07/01 19:45:34;;;;;;;;;7.00;6.80;;;;;26.30;43.41;98391.31;6255388;27;96766;-67
2021/07/01 19:48:50;;;;;;;;;9.00;8.20;;;;;26.25;43.49;98386.00;6279211;27;96360;-64
2021/07/01 19:52:07;;;;;;;;;8.00;8.00;;;;;26.20;43.60;98398.03;6261617;27;96717;-65
2021/07/01 19:55:23;;;;;;;;;9.80;8.40;;;;;26.21;43.55;98396.09;6374226;27;96274;-65
2021/07/01 19:58:39;;;;;;;;;8.00;8.00;;;;;26.17;43.58;98395.97;6331242;27;96401;-65
2021/07/01 20:01:57;;;;;;;;;9.50;9.50;;;;;26.14;43.70;98390.31;6257829;27;96430;-64
2021/07/01 20:05:13;;;;;;;;;8.00;8.00;;;;;26.07;43.67;98395.53;6280522;27;96311;-66
2021/07/01 20:08:29;;;;;;;;;7.40;7.00;;;;;26.04;43.94;98397.03;6257486;27;96741;-64
2021/07/01 20:11:44;;;;;;;;;6.00;6.00;;;;;25.99;44.14;98397.22;6257956;27;96594;-66
2021/07/01 20:14:59;;;;;;;;;8.00;8.00;;;;;25.96;44.38;98386.81;6336803;27;96857;-65
2021/07/01 20:18:14;;;;;;;;;9.00;7.00;;;;;25.88;44.77;98390.47;6241376;27;96478;-66
2021/07/01 20:21:30;;;;;;;;;9.80;9.80;;;;;25.79;45.07;98385.00;6252592;27;96689;-68
2021/07/01 20:24:46;;;;;;;;;8.25;7.25;;;;;25.73;45.16;98391.84;6278250;27;96342;-64
2021/07/01 20:28:01;;;;;;;;;8.00;7.40;;;;;25.63;45.49;98385.88;6261178;27;96633;-64
2021/07/01 20:31:16;;;;;;;;;7.00;6.00;;;;;25.48;45.88;98387.22;6245919;27;96423;-66
2021/07/01 20:34:30;;;;;;;;;7.00;7.00;;;;;25.43;45.88;98390.16;6253233;27;96644;-67
2021/07/01 20:37:47;;;;;;;;;7.20;7.20;;;;;25.37;46.36;98396.97;6323858;27;96384;-64
2021/07/01 20:41:02;;;;;;;;;10.00;9.00;;;;;25.27;46.58;98394.59;6324505;27;97625;-65
2021/07/01 20:44:17;;;;;;;;;7.75;7.00;;;;;25.17;46.74;98397.72;6243948;27;96255;-65
2021/07/01 20:47:32;;;;;;;;;9.00;8.20;;;;;25.07;47.17;98401.63;6250631;27;96520;-64
2021/07/01 20:50:49;;;;;;;;;9.00;8.00;;;;;24.90;47.36;98391.44;6276951;27;96048;-65
2021/07/01 20:54:06;;;;;;;;;10.00;9.40;;;;;24.80;47.03;98380.72;6255887;27;96299;-64
2021/07/01 20:57:20;;;;;;;;;9.00;9.00;;;;;24.82;46.88;98391.44;6331056;27;96777;-65
2021/07/01 21:00:35;;;;;;;;;9.00;8.00;;;;;24.69;46.75;98401.50;6257462;27;96131;-65
2021/07/01 21:04:05;;;;;;;;;10.50;10.00;;;;;24.60;46.69;98411.72;6282060;27;96107;-66
2021/07/01 21:07:27;;;;;;;;;9.80;9.80;;;;;24.48;47.08;98401.31;6255043;27;96403;-65
2021/07/01 21:10:46;;;;;;;;;8.20;8.20;;;;;24.42;47.08;98401.84;6258127;27;96544;-66
2021/07/01 21:14:03;;;;;;;;;10.80;9.80;;;;;24.41;46.72;98395.50;6261029;27;96622;-67
2021/07/01 21:17:18;;;;;;;;;9.50;8.00;;;;;24.40;46.50;98398.59;6337084;27;96413;-64
2021/07/01 21:20:33;;;;;;;;;7.50;7.00;;;;;24.31;46.53;98395.84;6257971;27;96195;-65
2021/07/01 21:23:48;;;;;;;;;11.00;10.00;;;;;24.22;46.37;98399.72;6242221;27;96548;-65
2021/07/01 21:27:03;;;;;;;;;10.00;9.00;;;;;24.11;46.07;98400.00;6258997;27;96793;-65